Corpus Christi Naval Air Sta, Texas
Current Conditions -  °F | °C
As of 3:56 AM on Friday 24 Oct 2014 (Local Time) from KNGP Reporting Station
Clear Clear  
Wind Chill: 68°   Ceiling: Unl
Heat Index: 68°   Visibility: 10mi
Dew Point: 65°   Wind: 3mph
Humidity: 90%   Direction: 60°ENE
Pressure: 30.08"   Gusts: NA
Location:  27.6657°N, 97.1897°W
Report Text: KNGP 240856Z AUTO 06003KT 10SM CLR 20/18 A3008 RMK AO2 SLP184 T02000183 56001
Loading
Personal Weather Stations






























Interactive Weather Map
Tropical Storm Tracking
New forecast layout! Learn more

10-Day Weather Forecast

Advertisements
Track Severe Weather on mobile